SEFAO ESPA-ESNS
Flight info
| Callsign | SEFAO |
|---|---|
| Flight time | N/A |
| Altitude | 3000 |
| Route | D |
| Aircraft | BE36/L-BDFGLORY/S |
Departure
| Time | 2026-04-17 21:37 |
|---|---|
| Airport | Luleå Airport (ESPA) |
Arrival
| Time | N/A |
|---|---|
| Airport | Skellefteå Airport (ESNS) |
| Time | Latitude | Longitude | Altitude | Speed | Heading |
|---|---|---|---|---|---|
| 2026-04-17 21:21 | 65.54943 | 22.11995 | 48 ft | 0 kts | 92° |
| 2026-04-17 21:31 | 65.54932 | 22.12011 | 48 ft | 7 kts | 220° |
| 2026-04-17 21:32 | 65.54924 | 22.11840 | 48 ft | 12 kts | 264° |
| 2026-04-17 21:32 | 65.54906 | 22.11649 | 49 ft | 14 kts | 310° |
| 2026-04-17 21:32 | 65.54983 | 22.11476 | 50 ft | 16 kts | 317° |
| 2026-04-17 21:32 | 65.55067 | 22.11288 | 52 ft | 16 kts | 317° |
| 2026-04-17 21:33 | 65.55120 | 22.11172 | 53 ft | 15 kts | 317° |
| 2026-04-17 21:33 | 65.55194 | 22.11008 | 55 ft | 14 kts | 315° |
| 2026-04-17 21:33 | 65.55284 | 22.10803 | 57 ft | 13 kts | 316° |
| 2026-04-17 21:33 | 65.55349 | 22.10656 | 52 ft | 13 kts | 317° |
| 2026-04-17 21:34 | 65.55392 | 22.10561 | 59 ft | 12 kts | 317° |
| 2026-04-17 21:34 | 65.55473 | 22.10380 | 60 ft | 12 kts | 318° |
| 2026-04-17 21:34 | 65.55553 | 22.10133 | 62 ft | 11 kts | 277° |
| 2026-04-17 21:35 | 65.55536 | 22.09926 | 63 ft | 9 kts | 233° |
| 2026-04-17 21:35 | 65.55526 | 22.09898 | 62 ft | 0 kts | 227° |
| 2026-04-17 21:35 | 65.55517 | 22.09875 | 63 ft | 10 kts | 227° |
| 2026-04-17 21:36 | 65.55454 | 22.09805 | 63 ft | 9 kts | 136° |
| 2026-04-17 21:36 | 65.55347 | 22.10048 | 60 ft | 53 kts | 137° |
| 2026-04-17 21:36 | 65.54964 | 22.10933 | 179 ft | 85 kts | 135° |
| 2026-04-17 21:36 | 65.54538 | 22.11960 | 467 ft | 86 kts | 133° |
| 2026-04-17 21:37 | 65.54029 | 22.13078 | 767 ft | 109 kts | 148° |
| 2026-04-17 21:37 | 65.53331 | 22.13613 | 1091 ft | 105 kts | 175° |
| 2026-04-17 21:37 | 65.52599 | 22.13542 | 1330 ft | 106 kts | 188° |
| 2026-04-17 21:37 | 65.51943 | 22.12678 | 1577 ft | 111 kts | 220° |
| 2026-04-17 21:38 | 65.51445 | 22.11221 | 1813 ft | 112 kts | 230° |
| 2026-04-17 21:38 | 65.51008 | 22.09691 | 2084 ft | 109 kts | 232° |
| 2026-04-17 21:38 | 65.50596 | 22.08177 | 2314 ft | 108 kts | 233° |
| 2026-04-17 21:38 | 65.50194 | 22.06616 | 2522 ft | 110 kts | 236° |
| 2026-04-17 21:39 | 65.49875 | 22.04940 | 2743 ft | 111 kts | 245° |
| 2026-04-17 21:39 | 65.49621 | 22.03187 | 2948 ft | 111 kts | 250° |
| 2026-04-17 21:39 | 65.49380 | 22.01419 | 3156 ft | 111 kts | 248° |
| 2026-04-17 21:39 | 65.49122 | 21.99669 | 3259 ft | 110 kts | 247° |
| 2026-04-17 21:40 | 65.48839 | 21.97908 | 3340 ft | 117 kts | 245° |
| 2026-04-17 21:40 | 65.48508 | 21.96045 | 3406 ft | 126 kts | 244° |
| 2026-04-17 21:40 | 65.48117 | 21.94070 | 3409 ft | 136 kts | 242° |
| 2026-04-17 21:40 | 65.47682 | 21.92018 | 3370 ft | 142 kts | 240° |
| 2026-04-17 21:41 | 65.47217 | 21.89942 | 3401 ft | 140 kts | 239° |